sensor_id;sensor_type;location;lat;lon;timestamp;pressure;altitude;pressure_sealevel;temperature;humidity
54172;BME280;40076;52.354;4.970;2023-04-20T00:00:33;102530.31;;;10.37;56.25
54172;BME280;40076;52.354;4.970;2023-04-20T00:02:59;102525.69;;;10.38;56.86
54172;BME280;40076;52.354;4.970;2023-04-20T00:05:24;102520.28;;;10.38;57.34
54172;BME280;40076;52.354;4.970;2023-04-20T00:07:50;102521.69;;;10.35;57.81
54172;BME280;40076;52.354;4.970;2023-04-20T00:10:15;102516.81;;;10.37;57.86
54172;BME280;40076;52.354;4.970;2023-04-20T00:12:41;102508.41;;;10.39;58.47
54172;BME280;40076;52.354;4.970;2023-04-20T00:15:07;102509.47;;;10.38;58.97
54172;BME280;40076;52.354;4.970;2023-04-20T00:17:32;102495.19;;;10.37;60.21
54172;BME280;40076;52.354;4.970;2023-04-20T00:19:58;102501.69;;;10.36;60.69
54172;BME280;40076;52.354;4.970;2023-04-20T00:22:23;102502.50;;;10.32;59.78
54172;BME280;40076;52.354;4.970;2023-04-20T00:24:49;102498.72;;;10.33;60.13
54172;BME280;40076;52.354;4.970;2023-04-20T00:27:14;102492.75;;;10.31;61.21
54172;BME280;40076;52.354;4.970;2023-04-20T00:29:40;102486.53;;;10.30;61.75
54172;BME280;40076;52.354;4.970;2023-04-20T00:32:05;102489.25;;;10.30;62.25
54172;BME280;40076;52.354;4.970;2023-04-20T00:34:30;102480.91;;;10.27;62.34
54172;BME280;40076;52.354;4.970;2023-04-20T00:36:56;102483.59;;;10.27;62.87
54172;BME280;40076;52.354;4.970;2023-04-20T00:39:21;102474.41;;;10.28;63.83
54172;BME280;40076;52.354;4.970;2023-04-20T00:41:47;102478.75;;;10.29;63.94
54172;BME280;40076;52.354;4.970;2023-04-20T00:44:12;102468.47;;;10.26;64.03
54172;BME280;40076;52.354;4.970;2023-04-20T00:46:39;102466.84;;;10.25;64.80
54172;BME280;40076;52.354;4.970;2023-04-20T00:49:05;102459.56;;;10.25;64.48
54172;BME280;40076;52.354;4.970;2023-04-20T00:51:31;102456.06;;;10.25;64.86
54172;BME280;40076;52.354;4.970;2023-04-20T00:53:57;102455.50;;;10.23;65.98
54172;BME280;40076;52.354;4.970;2023-04-20T00:56:23;102445.81;;;10.22;65.32
54172;BME280;40076;52.354;4.970;2023-04-20T00:58:49;102443.34;;;10.25;64.80
54172;BME280;40076;52.354;4.970;2023-04-20T01:01:15;102446.88;;;10.26;66.03
54172;BME280;40076;52.354;4.970;2023-04-20T01:03:42;102444.44;;;10.24;66.77
54172;BME280;40076;52.354;4.970;2023-04-20T01:06:08;102430.13;;;10.24;67.86
54172;BME280;40076;52.354;4.970;2023-04-20T01:08:33;102432.53;;;10.25;68.28
54172;BME280;40076;52.354;4.970;2023-04-20T01:10:59;102427.16;;;10.25;68.48
54172;BME280;40076;52.354;4.970;2023-04-20T01:13:24;102424.72;;;10.24;68.54
54172;BME280;40076;52.354;4.970;2023-04-20T01:15:49;102418.25;;;10.20;69.53
54172;BME280;40076;52.354;4.970;2023-04-20T01:18:16;102413.94;;;10.19;69.99
54172;BME280;40076;52.354;4.970;2023-04-20T01:20:44;102413.94;;;10.19;70.75
54172;BME280;40076;52.354;4.970;2023-04-20T01:23:11;102406.09;;;10.17;71.63
54172;BME280;40076;52.354;4.970;2023-04-20T01:25:36;102403.94;;;10.14;72.91
54172;BME280;40076;52.354;4.970;2023-04-20T01:28:01;102404.75;;;10.10;73.37
54172;BME280;40076;52.354;4.970;2023-04-20T01:30:27;102399.94;;;10.06;73.71
54172;BME280;40076;52.354;4.970;2023-04-20T01:32:53;102396.97;;;10.03;74.48
54172;BME280;40076;52.354;4.970;2023-04-20T01:35:18;102394.00;;;9.99;75.16
54172;BME280;40076;52.354;4.970;2023-04-20T01:37:43;102391.88;;;9.96;75.51
54172;BME280;40076;52.354;4.970;2023-04-20T01:40:11;102386.19;;;9.93;76.08
54172;BME280;40076;52.354;4.970;2023-04-20T01:42:37;102382.97;;;9.91;76.41
54172;BME280;40076;52.354;4.970;2023-04-20T01:45:04;102381.09;;;9.86;76.77
54172;BME280;40076;52.354;4.970;2023-04-20T01:47:30;102380.28;;;9.86;76.97
54172;BME280;40076;52.354;4.970;2023-04-20T01:49:55;102372.75;;;9.83;77.47
54172;BME280;40076;52.354;4.970;2023-04-20T01:52:21;102372.47;;;9.79;77.71
54172;BME280;40076;52.354;4.970;2023-04-20T01:54:46;102367.94;;;9.75;78.23
54172;BME280;40076;52.354;4.970;2023-04-20T01:57:11;102374.94;;;9.71;78.77
54172;BME280;40076;52.354;4.970;2023-04-20T01:59:36;102370.09;;;9.67;79.48
54172;BME280;40076;52.354;4.970;2023-04-20T02:02:02;102364.44;;;9.64;80.07
54172;BME280;40076;52.354;4.970;2023-04-20T02:04:27;102356.38;;;9.59;80.52
54172;BME280;40076;52.354;4.970;2023-04-20T02:06:52;102357.44;;;9.58;80.58
54172;BME280;40076;52.354;4.970;2023-04-20T02:09:18;102352.59;;;9.55;81.04
54172;BME280;40076;52.354;4.970;2023-04-20T02:11:43;102348.84;;;9.51;81.83
54172;BME280;40076;52.354;4.970;2023-04-20T02:14:08;102349.09;;;9.49;82.16
54172;BME280;40076;52.354;4.970;2023-04-20T02:16:34;102338.34;;;9.44;82.95
54172;BME280;40076;52.354;4.970;2023-04-20T02:18:59;102333.47;;;9.41;84.12
54172;BME280;40076;52.354;4.970;2023-04-20T02:21:25;102334.28;;;9.42;84.52
54172;BME280;40076;52.354;4.970;2023-04-20T02:23:50;102328.34;;;9.40;85.13
54172;BME280;40076;52.354;4.970;2023-04-20T02:26:15;102328.66;;;9.38;85.65
54172;BME280;40076;52.354;4.970;2023-04-20T02:28:41;102325.66;;;9.40;86.02
54172;BME280;40076;52.354;4.970;2023-04-20T02:31:06;102321.34;;;9.39;86.78
54172;BME280;40076;52.354;4.970;2023-04-20T02:33:31;102317.84;;;9.38;88.03
54172;BME280;40076;52.354;4.970;2023-04-20T02:35:57;102314.84;;;9.40;88.98
54172;BME280;40076;52.354;4.970;2023-04-20T02:38:22;102311.63;;;9.43;89.42
54172;BME280;40076;52.354;4.970;2023-04-20T02:40:47;102297.59;;;9.46;89.88
54172;BME280;40076;52.354;4.970;2023-04-20T02:43:13;102306.19;;;9.48;90.52
54172;BME280;40076;52.354;4.970;2023-04-20T02:45:38;102306.75;;;9.50;90.76
54172;BME280;40076;52.354;4.970;2023-04-20T02:48:04;102291.09;;;9.52;91.12
54172;BME280;40076;52.354;4.970;2023-04-20T02:50:29;102295.09;;;9.54;91.36
54172;BME280;40076;52.354;4.970;2023-04-20T02:52:55;102282.44;;;9.55;92.03
54172;BME280;40076;52.354;4.970;2023-04-20T02:55:20;102275.13;;;9.55;92.38
54172;BME280;40076;52.354;4.970;2023-04-20T02:57:45;102282.97;;;9.57;92.69
54172;BME280;40076;52.354;4.970;2023-04-20T03:00:11;102272.97;;;9.57;93.05
54172;BME280;40076;52.354;4.970;2023-04-20T03:02:37;102265.44;;;9.59;93.27
54172;BME280;40076;52.354;4.970;2023-04-20T03:05:03;102272.94;;;9.62;93.15
54172;BME280;40076;52.354;4.970;2023-04-20T03:07:29;102264.59;;;9.64;93.48
54172;BME280;40076;52.354;4.970;2023-04-20T03:09:54;102258.09;;;9.65;93.94
54172;BME280;40076;52.354;4.970;2023-04-20T03:12:20;102259.44;;;9.67;93.62
54172;BME280;40076;52.354;4.970;2023-04-20T03:14:46;102249.16;;;9.69;93.56
54172;BME280;40076;52.354;4.970;2023-04-20T03:17:11;102241.06;;;9.69;94.01
54172;BME280;40076;52.354;4.970;2023-04-20T03:19:37;102238.09;;;9.71;94.12
54172;BME280;40076;52.354;4.970;2023-04-20T03:22:02;102241.88;;;9.75;93.84
54172;BME280;40076;52.354;4.970;2023-04-20T03:24:28;102246.19;;;9.76;93.60
54172;BME280;40076;52.354;4.970;2023-04-20T03:26:53;102230.75;;;9.77;93.47
54172;BME280;40076;52.354;4.970;2023-04-20T03:29:19;102232.69;;;9.76;93.52
54172;BME280;40076;52.354;4.970;2023-04-20T03:31:44;102233.47;;;9.77;93.57
54172;BME280;40076;52.354;4.970;2023-04-20T03:34:10;102220.78;;;9.77;93.32
54172;BME280;40076;52.354;4.970;2023-04-20T03:36:36;102213.25;;;9.74;93.65
54172;BME280;40076;52.354;4.970;2023-04-20T03:39:02;102221.06;;;9.76;93.09
54172;BME280;40076;52.354;4.970;2023-04-20T03:41:29;102221.88;;;9.76;93.04
54172;BME280;40076;52.354;4.970;2023-04-20T03:43:55;102212.72;;;9.72;93.56
54172;BME280;40076;52.354;4.970;2023-04-20T03:46:20;102206.50;;;9.72;93.33
54172;BME280;40076;52.354;4.970;2023-04-20T03:48:45;102207.84;;;9.74;93.04
54172;BME280;40076;52.354;4.970;2023-04-20T03:51:11;102202.72;;;9.73;93.37
54172;BME280;40076;52.354;4.970;2023-04-20T03:53:36;102207.31;;;9.72;93.34
54172;BME280;40076;52.354;4.970;2023-04-20T03:56:01;102206.25;;;9.73;93.09
54172;BME280;40076;52.354;4.970;2023-04-20T03:58:26;102199.75;;;9.74;93.25
54172;BME280;40076;52.354;4.970;2023-04-20T04:00:52;102204.06;;;9.75;93.29
54172;BME280;40076;52.354;4.970;2023-04-20T04:03:17;102197.06;;;9.74;93.63
54172;BME280;40076;52.354;4.970;2023-04-20T04:05:42;102200.56;;;9.75;93.72
54172;BME280;40076;52.354;4.970;2023-04-20T04:08:08;102198.69;;;9.75;93.96
54172;BME280;40076;52.354;4.970;2023-04-20T04:10:33;102194.91;;;9.76;94.17
54172;BME280;40076;52.354;4.970;2023-04-20T04:12:58;102190.28;;;9.77;94.40
54172;BME280;40076;52.354;4.970;2023-04-20T04:15:24;102188.38;;;9.77;94.67
54172;BME280;40076;52.354;4.970;2023-04-20T04:17:49;102187.31;;;9.78;94.69
54172;BME280;40076;52.354;4.970;2023-04-20T04:20:14;102186.50;;;9.78;95.24
54172;BME280;40076;52.354;4.970;2023-04-20T04:22:40;102171.91;;;9.79;95.12
54172;BME280;40076;52.354;4.970;2023-04-20T04:25:05;102172.72;;;9.79;95.43
54172;BME280;40076;52.354;4.970;2023-04-20T04:27:31;102164.09;;;9.77;96.12
54172;BME280;40076;52.354;4.970;2023-04-20T04:29:59;102159.50;;;9.78;96.32
54172;BME280;40076;52.354;4.970;2023-04-20T04:32:25;102167.91;;;9.76;96.63
54172;BME280;40076;52.354;4.970;2023-04-20T04:34:50;102168.44;;;9.73;97.15
54172;BME280;40076;52.354;4.970;2023-04-20T04:37:17;102163.06;;;9.73;97.58
54172;BME280;40076;52.354;4.970;2023-04-20T04:39:42;102168.72;;;9.72;98.47
54172;BME280;40076;52.354;4.970;2023-04-20T04:42:08;102161.97;;;9.69;99.07
54172;BME280;40076;52.354;4.970;2023-04-20T04:44:33;102160.41;;;9.68;99.37
54172;BME280;40076;52.354;4.970;2023-04-20T04:47:01;102159.00;;;9.71;99.06
54172;BME280;40076;52.354;4.970;2023-04-20T04:49:27;102160.09;;;9.69;98.77
54172;BME280;40076;52.354;4.970;2023-04-20T04:51:53;102162.53;;;9.71;98.27
54172;BME280;40076;52.354;4.970;2023-04-20T04:54:18;102162.25;;;9.73;98.29
54172;BME280;40076;52.354;4.970;2023-04-20T04:56:44;102152.25;;;9.73;97.56
54172;BME280;40076;52.354;4.970;2023-04-20T04:59:09;102142.28;;;9.74;96.78
54172;BME280;40076;52.354;4.970;2023-04-20T05:01:34;102153.06;;;9.74;95.98
54172;BME280;40076;52.354;4.970;2023-04-20T05:04:00;102173.56;;;9.75;94.84
54172;BME280;40076;52.354;4.970;2023-04-20T05:06:25;102152.25;;;9.73;93.53
54172;BME280;40076;52.354;4.970;2023-04-20T05:08:51;102148.47;;;9.74;93.19
54172;BME280;40076;52.354;4.970;2023-04-20T05:11:16;102147.91;;;9.77;92.85
54172;BME280;40076;52.354;4.970;2023-04-20T05:13:41;102143.03;;;9.79;93.08
54172;BME280;40076;52.354;4.970;2023-04-20T05:16:07;102143.31;;;9.78;93.13
54172;BME280;40076;52.354;4.970;2023-04-20T05:18:32;102137.09;;;9.77;93.61
54172;BME280;40076;52.354;4.970;2023-04-20T05:20:57;102130.13;;;9.76;93.08
54172;BME280;40076;52.354;4.970;2023-04-20T05:23:23;102139.00;;;9.77;92.97
54172;BME280;40076;52.354;4.970;2023-04-20T05:25:48;102135.19;;;9.78;92.75
54172;BME280;40076;52.354;4.970;2023-04-20T05:28:13;102129.81;;;9.78;92.23
54172;BME280;40076;52.354;4.970;2023-04-20T05:30:39;102140.59;;;9.78;92.18
54172;BME280;40076;52.354;4.970;2023-04-20T05:33:04;102129.00;;;9.77;92.11
54172;BME280;40076;52.354;4.970;2023-04-20T05:35:29;102125.50;;;9.77;92.22
54172;BME280;40076;52.354;4.970;2023-04-20T05:37:55;102129.00;;;9.77;91.58
54172;BME280;40076;52.354;4.970;2023-04-20T05:40:21;102130.13;;;9.76;92.03
54172;BME280;40076;52.354;4.970;2023-04-20T05:42:46;102126.31;;;9.77;92.11
54172;BME280;40076;52.354;4.970;2023-04-20T05:45:12;102129.31;;;9.76;91.76
54172;BME280;40076;52.354;4.970;2023-04-20T05:47:37;102149.50;;;9.78;91.98
54172;BME280;40076;52.354;4.970;2023-04-20T05:50:03;102126.88;;;9.74;91.80
54172;BME280;40076;52.354;4.970;2023-04-20T05:52:28;102143.63;;;9.71;91.00
54172;BME280;40076;52.354;4.970;2023-04-20T05:54:53;102126.91;;;9.69;92.17
54172;BME280;40076;52.354;4.970;2023-04-20T05:57:19;102148.22;;;9.71;90.82
54172;BME280;40076;52.354;4.970;2023-04-20T05:59:44;102130.72;;;9.68;90.99
54172;BME280;40076;52.354;4.970;2023-04-20T06:02:10;102135.00;;;9.69;91.42
54172;BME280;40076;52.354;4.970;2023-04-20T06:04:36;102133.09;;;9.69;92.02
54172;BME280;40076;52.354;4.970;2023-04-20T06:07:01;102140.44;;;9.64;92.14
54172;BME280;40076;52.354;4.970;2023-04-20T06:09:26;102139.09;;;9.66;91.56
54172;BME280;40076;52.354;4.970;2023-04-20T06:11:52;102148.53;;;9.64;91.89
54172;BME280;40076;52.354;4.970;2023-04-20T06:14:17;102155.00;;;9.63;91.98
54172;BME280;40076;52.354;4.970;2023-04-20T06:16:42;102147.72;;;9.63;93.20
54172;BME280;40076;52.354;4.970;2023-04-20T06:19:07;102157.72;;;9.63;94.22
54172;BME280;40076;52.354;4.970;2023-04-20T06:21:34;102157.47;;;9.59;94.42
54172;BME280;40076;52.354;4.970;2023-04-20T06:24:00;102142.69;;;9.47;93.87
54172;BME280;40076;52.354;4.970;2023-04-20T06:26:26;102151.34;;;9.49;93.97
54172;BME280;40076;52.354;4.970;2023-04-20T06:28:51;102143.28;;;9.44;94.54
54172;BME280;40076;52.354;4.970;2023-04-20T06:31:18;102137.06;;;9.43;94.56
54172;BME280;40076;52.354;4.970;2023-04-20T06:33:43;102140.56;;;9.44;94.32
54172;BME280;40076;52.354;4.970;2023-04-20T06:36:08;102136.81;;;9.45;95.55
54172;BME280;40076;52.354;4.970;2023-04-20T06:38:34;102128.41;;;9.46;95.73
54172;BME280;40076;52.354;4.970;2023-04-20T06:40:59;102121.97;;;9.42;96.17
54172;BME280;40076;52.354;4.970;2023-04-20T06:43:27;102129.53;;;9.40;96.41
54172;BME280;40076;52.354;4.970;2023-04-20T06:45:52;102140.09;;;9.37;96.11
54172;BME280;40076;52.354;4.970;2023-04-20T06:48:17;102140.59;;;9.39;95.64
54172;BME280;40076;52.354;4.970;2023-04-20T06:50:43;102142.25;;;9.35;95.74
54172;BME280;40076;52.354;4.970;2023-04-20T06:53:11;102145.75;;;9.35;95.25
54172;BME280;40076;52.354;4.970;2023-04-20T06:55:36;102140.63;;;9.34;94.87
54172;BME280;40076;52.354;4.970;2023-04-20T06:58:01;102146.03;;;9.34;93.70
54172;BME280;40076;52.354;4.970;2023-04-20T07:00:27;102138.19;;;9.32;92.48
54172;BME280;40076;52.354;4.970;2023-04-20T07:02:52;102136.88;;;9.29;93.47
54172;BME280;40076;52.354;4.970;2023-04-20T07:05:18;102130.09;;;9.32;93.13
54172;BME280;40076;52.354;4.970;2023-04-20T07:07:43;102129.56;;;9.35;93.25
54172;BME280;40076;52.354;4.970;2023-04-20T07:10:10;102126.88;;;9.35;93.47
54172;BME280;40076;52.354;4.970;2023-04-20T07:12:37;102120.41;;;9.36;93.88
54172;BME280;40076;52.354;4.970;2023-04-20T07:15:06;102132.25;;;9.35;92.89
54172;BME280;40076;52.354;4.970;2023-04-20T07:17:32;102129.03;;;9.33;91.31
54172;BME280;40076;52.354;4.970;2023-04-20T07:19:57;102122.56;;;9.34;91.60
54172;BME280;40076;52.354;4.970;2023-04-20T07:22:30;102134.69;;;9.32;90.95
54172;BME280;40076;52.354;4.970;2023-04-20T07:24:55;102130.97;;;9.27;90.80
54172;BME280;40076;52.354;4.970;2023-04-20T07:27:21;102138.25;;;9.27;91.40
54172;BME280;40076;52.354;4.970;2023-04-20T07:29:46;102150.38;;;9.24;90.75
54172;BME280;40076;52.354;4.970;2023-04-20T07:32:11;102144.97;;;9.24;90.68
54172;BME280;40076;52.354;4.970;2023-04-20T07:34:37;102136.94;;;9.19;89.75
54172;BME280;40076;52.354;4.970;2023-04-20T07:37:02;102135.31;;;9.18;89.97
54172;BME280;40076;52.354;4.970;2023-04-20T07:39:27;102141.25;;;9.20;90.65
54172;BME280;40076;52.354;4.970;2023-04-20T07:41:54;102130.72;;;9.19;92.16
54172;BME280;40076;52.354;4.970;2023-04-20T07:44:21;102139.66;;;9.14;93.40
54172;BME280;40076;52.354;4.970;2023-04-20T07:46:46;102129.41;;;9.11;94.63
54172;BME280;40076;52.354;4.970;2023-04-20T07:49:13;102127.25;;;9.08;96.00
54172;BME280;40076;52.354;4.970;2023-04-20T07:51:38;102132.69;;;9.03;97.82
54172;BME280;40076;52.354;4.970;2023-04-20T07:54:04;102137.03;;;8.99;98.91
54172;BME280;40076;52.354;4.970;2023-04-20T07:56:29;102124.63;;;8.93;100.00
54172;BME280;40076;52.354;4.970;2023-04-20T07:58:56;102127.91;;;8.90;100.00
54172;BME280;40076;52.354;4.970;2023-04-20T08:01:24;102121.19;;;8.82;100.00
54172;BME280;40076;52.354;4.970;2023-04-20T08:03:50;102120.09;;;8.78;100.00
54172;BME280;40076;52.354;4.970;2023-04-20T08:06:16;102124.69;;;8.78;100.00
54172;BME280;40076;52.354;4.970;2023-04-20T08:08:41;102136.03;;;8.75;100.00
54172;BME280;40076;52.354;4.970;2023-04-20T08:11:06;102137.13;;;8.64;100.00
54172;BME280;40076;52.354;4.970;2023-04-20T08:13:32;102131.78;;;8.59;100.00
54172;BME280;40076;52.354;4.970;2023-04-20T08:15:57;102138.50;;;8.56;100.00
54172;BME280;40076;52.354;4.970;2023-04-20T08:18:23;102149.03;;;8.52;100.00
54172;BME280;40076;52.354;4.970;2023-04-20T08:20:48;102140.69;;;8.44;100.00
54172;BME280;40076;52.354;4.970;2023-04-20T08:23:15;102133.72;;;8.38;100.00
54172;BME280;40076;52.354;4.970;2023-04-20T08:25:40;102128.06;;;8.34;100.00
54172;BME280;40076;52.354;4.970;2023-04-20T08:28:05;102117.81;;;8.36;100.00
54172;BME280;40076;52.354;4.970;2023-04-20T08:30:31;102126.16;;;8.35;100.00
54172;BME280;40076;52.354;4.970;2023-04-20T08:32:57;102109.19;;;8.34;100.00
54172;BME280;40076;52.354;4.970;2023-04-20T08:35:22;102107.56;;;8.33;100.00
54172;BME280;40076;52.354;4.970;2023-04-20T08:37:47;102106.50;;;8.29;100.00
54172;BME280;40076;52.354;4.970;2023-04-20T08:40:13;102092.47;;;8.27;100.00
54172;BME280;40076;52.354;4.970;2023-04-20T08:42:39;102098.69;;;8.28;100.00
54172;BME280;40076;52.354;4.970;2023-04-20T08:45:04;102089.25;;;8.25;100.00
54172;BME280;40076;52.354;4.970;2023-04-20T08:47:31;102094.94;;;8.24;100.00
54172;BME280;40076;52.354;4.970;2023-04-20T08:49:58;102102.19;;;8.23;100.00
54172;BME280;40076;52.354;4.970;2023-04-20T08:52:24;102108.66;;;8.22;100.00
54172;BME280;40076;52.354;4.970;2023-04-20T08:54:49;102110.81;;;8.20;100.00
54172;BME280;40076;52.354;4.970;2023-04-20T08:57:15;102103.25;;;8.17;100.00
54172;BME280;40076;52.354;4.970;2023-04-20T08:59:40;102114.84;;;8.18;100.00
54172;BME280;40076;52.354;4.970;2023-04-20T09:02:12;102103.56;;;8.16;100.00
54172;BME280;40076;52.354;4.970;2023-04-20T09:04:39;102112.97;;;8.18;100.00
54172;BME280;40076;52.354;4.970;2023-04-20T09:07:05;102103.25;;;8.17;100.00
54172;BME280;40076;52.354;4.970;2023-04-20T09:09:31;102090.59;;;8.18;100.00
54172;BME280;40076;52.354;4.970;2023-04-20T09:12:05;102087.09;;;8.17;100.00
54172;BME280;40076;52.354;4.970;2023-04-20T09:14:41;102108.13;;;8.15;100.00
54172;BME280;40076;52.354;4.970;2023-04-20T09:17:06;102100.56;;;8.17;100.00
54172;BME280;40076;52.354;4.970;2023-04-20T09:19:32;102094.13;;;8.13;100.00
54172;BME280;40076;52.354;4.970;2023-04-20T09:21:59;102087.66;;;8.14;100.00
54172;BME280;40076;52.354;4.970;2023-04-20T09:24:35;102091.44;;;8.13;100.00
54172;BME280;40076;52.354;4.970;2023-04-20T09:27:12;102071.25;;;8.16;100.00
54172;BME280;40076;52.354;4.970;2023-04-20T09:29:38;102077.94;;;8.18;100.00
54172;BME280;40076;52.354;4.970;2023-04-20T09:32:03;102088.47;;;8.20;100.00
54172;BME280;40076;52.354;4.970;2023-04-20T09:34:29;102066.38;;;8.18;100.00
54172;BME280;40076;52.354;4.970;2023-04-20T09:36:54;102087.66;;;8.19;100.00
54172;BME280;40076;52.354;4.970;2023-04-20T09:39:21;102077.41;;;8.21;100.00
54172;BME280;40076;52.354;4.970;2023-04-20T09:41:48;102087.13;;;8.22;100.00
54172;BME280;40076;52.354;4.970;2023-04-20T09:44:15;102105.16;;;8.22;100.00
54172;BME280;40076;52.354;4.970;2023-04-20T09:46:41;102097.88;;;8.22;100.00
54172;BME280;40076;52.354;4.970;2023-04-20T09:49:09;102093.03;;;8.19;100.00
54172;BME280;40076;52.354;4.970;2023-04-20T09:51:40;102081.72;;;8.22;100.00
54172;BME280;40076;52.354;4.970;2023-04-20T09:54:06;102080.66;;;8.23;100.00
54172;BME280;40076;52.354;4.970;2023-04-20T09:56:33;102072.81;;;8.27;100.00
54172;BME280;40076;52.354;4.970;2023-04-20T09:58:59;102079.31;;;8.31;100.00
54172;BME280;40076;52.354;4.970;2023-04-20T10:01:25;102065.56;;;8.32;100.00
54172;BME280;40076;52.354;4.970;2023-04-20T10:03:52;102077.16;;;8.38;100.00
54172;BME280;40076;52.354;4.970;2023-04-20T10:06:28;102079.28;;;8.41;100.00
54172;BME280;40076;52.354;4.970;2023-04-20T10:08:54;102079.56;;;8.44;100.00
54172;BME280;40076;52.354;4.970;2023-04-20T10:11:24;102061.25;;;8.46;100.00
54172;BME280;40076;52.354;4.970;2023-04-20T10:13:50;102067.13;;;8.48;100.00
54172;BME280;40076;52.354;4.970;2023-04-20T10:16:19;102064.19;;;8.50;100.00
54172;BME280;40076;52.354;4.970;2023-04-20T10:19:02;102053.66;;;8.48;100.00
54172;BME280;40076;52.354;4.970;2023-04-20T10:21:31;102067.13;;;8.48;100.00
54172;BME280;40076;52.354;4.970;2023-04-20T10:23:58;102057.44;;;8.47;100.00
54172;BME280;40076;52.354;4.970;2023-04-20T10:26:44;102055.81;;;8.51;100.00
54172;BME280;40076;52.354;4.970;2023-04-20T10:29:21;102045.28;;;8.55;100.00
54172;BME280;40076;52.354;4.970;2023-04-20T10:31:48;102051.75;;;8.59;100.00
54172;BME280;40076;52.354;4.970;2023-04-20T10:34:14;102049.59;;;8.61;100.00
54172;BME280;40076;52.354;4.970;2023-04-20T10:36:39;102053.34;;;8.65;100.00
54172;BME280;40076;52.354;4.970;2023-04-20T10:39:19;102063.59;;;8.68;100.00
54172;BME280;40076;52.354;4.970;2023-04-20T10:41:53;102057.84;;;8.80;100.00
54172;BME280;40076;52.354;4.970;2023-04-20T10:44:19;102055.44;;;8.83;100.00
54172;BME280;40076;52.354;4.970;2023-04-20T10:46:48;102056.50;;;8.82;100.00
54172;BME280;40076;52.354;4.970;2023-04-20T10:49:14;102050.53;;;8.85;100.00
54172;BME280;40076;52.354;4.970;2023-04-20T10:51:51;102051.03;;;8.93;100.00
54172;BME280;40076;52.354;4.970;2023-04-20T10:54:18;102034.31;;;8.96;100.00
54172;BME280;40076;52.354;4.970;2023-04-20T10:56:49;102043.75;;;8.98;100.00
54172;BME280;40076;52.354;4.970;2023-04-20T10:59:20;102041.56;;;9.00;100.00
54172;BME280;40076;52.354;4.970;2023-04-20T11:01:47;102035.09;;;9.06;100.00
54172;BME280;40076;52.354;4.970;2023-04-20T11:04:13;102022.63;;;9.10;100.00
54172;BME280;40076;52.354;4.970;2023-04-20T11:06:41;102023.41;;;9.16;100.00
54172;BME280;40076;52.354;4.970;2023-04-20T11:09:23;102022.63;;;9.15;100.00
54172;BME280;40076;52.354;4.970;2023-04-20T11:12:17;102025.81;;;9.22;100.00
54172;BME280;40076;52.354;4.970;2023-04-20T11:14:52;102023.88;;;9.28;100.00
54172;BME280;40076;52.354;4.970;2023-04-20T11:17:18;102012.22;;;9.33;100.00
54172;BME280;40076;52.354;4.970;2023-04-20T11:19:43;102014.91;;;9.38;100.00
54172;BME280;40076;52.354;4.970;2023-04-20T11:22:20;102012.16;;;9.43;100.00
54172;BME280;40076;52.354;4.970;2023-04-20T11:24:45;102006.16;;;9.51;100.00
54172;BME280;40076;52.354;4.970;2023-04-20T11:27:18;102010.97;;;9.54;100.00
54172;BME280;40076;52.354;4.970;2023-04-20T11:29:54;102002.34;;;9.57;100.00
54172;BME280;40076;52.354;4.970;2023-04-20T11:32:20;102001.25;;;9.58;100.00
54172;BME280;40076;52.354;4.970;2023-04-20T11:34:45;101986.38;;;9.60;100.00
54172;BME280;40076;52.354;4.970;2023-04-20T11:37:11;101993.63;;;9.65;100.00
54172;BME280;40076;52.354;4.970;2023-04-20T11:39:39;101978.50;;;9.64;100.00
54172;BME280;40076;52.354;4.970;2023-04-20T11:42:04;101981.75;;;9.66;100.00
54172;BME280;40076;52.354;4.970;2023-04-20T11:44:30;101977.16;;;9.66;100.00
54172;BME280;40076;52.354;4.970;2023-04-20T11:46:56;101976.06;;;9.67;100.00
54172;BME280;40076;52.354;4.970;2023-04-20T11:49:23;101977.09;;;9.72;100.00
54172;BME280;40076;52.354;4.970;2023-04-20T11:51:49;101971.13;;;9.75;100.00
54172;BME280;40076;52.354;4.970;2023-04-20T11:54:15;101970.28;;;9.79;100.00
54172;BME280;40076;52.354;4.970;2023-04-20T11:56:43;101958.63;;;9.84;100.00
54172;BME280;40076;52.354;4.970;2023-04-20T11:59:08;101952.88;;;9.90;100.00
54172;BME280;40076;52.354;4.970;2023-04-20T12:01:34;101957.97;;;9.92;100.00
54172;BME280;40076;52.354;4.970;2023-04-20T12:04:00;101955.00;;;9.93;100.00
54172;BME280;40076;52.354;4.970;2023-04-20T12:06:27;101951.22;;;9.94;100.00
54172;BME280;40076;52.354;4.970;2023-04-20T12:09:01;101963.63;;;9.95;100.00
54172;BME280;40076;52.354;4.970;2023-04-20T12:11:26;101952.53;;;9.97;100.00
54172;BME280;40076;52.354;4.970;2023-04-20T12:13:51;101967.34;;;9.99;100.00
54172;BME280;40076;52.354;4.970;2023-04-20T12:16:18;101963.28;;;10.02;100.00
54172;BME280;40076;52.354;4.970;2023-04-20T12:18:44;101960.00;;;10.05;100.00
54172;BME280;40076;52.354;4.970;2023-04-20T12:21:09;101956.44;;;10.10;100.00
54172;BME280;40076;52.354;4.970;2023-04-20T12:23:35;101957.19;;;10.15;100.00
54172;BME280;40076;52.354;4.970;2023-04-20T12:26:04;101958.53;;;10.18;100.00
54172;BME280;40076;52.354;4.970;2023-04-20T12:28:30;101953.38;;;10.21;100.00
54172;BME280;40076;52.354;4.970;2023-04-20T12:30:55;101947.16;;;10.21;100.00
54172;BME280;40076;52.354;4.970;2023-04-20T12:33:21;101960.06;;;10.24;100.00
54172;BME280;40076;52.354;4.970;2023-04-20T12:35:46;101949.28;;;10.24;100.00
54172;BME280;40076;52.354;4.970;2023-04-20T12:38:11;101946.84;;;10.22;100.00
54172;BME280;40076;52.354;4.970;2023-04-20T12:40:36;101957.97;;;10.21;100.00
54172;BME280;40076;52.354;4.970;2023-04-20T12:43:02;101955.28;;;10.21;100.00
54172;BME280;40076;52.354;4.970;2023-04-20T12:45:27;101944.16;;;10.22;100.00
54172;BME280;40076;52.354;4.970;2023-04-20T12:47:53;101939.28;;;10.24;100.00
54172;BME280;40076;52.354;4.970;2023-04-20T12:50:18;101938.44;;;10.29;100.00